• Join FlightAware (Why Join?)
  • Login
  • US Flag 
10:37PM EDT


 

Airport Tracker/Info


-or-


 

Live Flight TrackerFlight Track Log ✈ SWA3133 ✈ 19-Apr-2013 ✈ KISP - KMCO

Flight Track Log - Related Links

Times and Time Zones

All times are in EDT time to prevent confusion due to time zone crossing. See the SWA3133 flight status page for this flight to view local times or setup timezone preferences in your user account.

Time Position Orientation Groundspeed Altitude Reporting Facility
EDT Latitude Longitude Course Direction KTS MPH feet Rate Location/Type
04:41PM 40.7458 -73.1111 77° East 207 238 3,800  Level Boston Center
04:42PM 40.7608 -73.0236 77° East 222 255 4,400 1,680 Climbing Boston Center
04:43PM 40.7572 -72.9333 93° East 247 284 7,200 2,040 Climbing Boston Center
04:44PM 40.7514 -72.8292 94° East 270 311 8,500 1,620 Climbing Boston Center
04:45PM 40.7100 -72.7331 120° Southeast 290 334 10,500 1,920 Climbing Boston Center
04:46PM 40.6369 -72.7711 202° Southwest 209 241 12,400 2,400 Climbing Boston Center
04:47PM 40.5658 -72.8500 220° Southwest 243 280 15,300 3,000 Climbing Boston Center
04:48PM 40.4947 -72.9258 219° Southwest 298 343 18,400 2,760 Climbing Boston Center
04:49PM 40.4214 -73.0069 220° Southwest 329 379 20,900 2,280 Climbing Boston Center
04:50PM 40.3439 -73.0881 219° Southwest 349 402 23,100 1,560 Climbing Boston Center
04:51PM 40.2619 -73.1769 220° Southwest 373 429 24,000 1,380 Climbing Boston Center
04:53PM 40.0806 -73.3817 221° Southwest 399 459 27,500 1,800 Climbing Washington Center
04:54PM 39.9986 -73.4628 217° Southwest 404 465 29,600 1,980 Climbing Washington Center
04:55PM 39.9169 -73.5544 221° Southwest 404 465 31,500 1,200 Climbing Washington Center
04:56PM 39.8289 -73.6489 219° Southwest 404 465 32,000 240 Climbing Washington Center
04:57PM 39.7347 -73.7458 218° Southwest 404 465 32,000  Level Washington Center
04:58PM 39.6506 -73.8344 219° Southwest 404 465 32,000  Level Washington Center
04:59PM 39.5644 -73.9253 219° Southwest 404 465 32,000  Level Washington Center
05:00PM 39.4758 -74.0161 218° Southwest 404 465 32,000  Level Washington Center
05:01PM 39.3897 -74.1067 219° Southwest 404 465 32,000  Level Washington Center
05:02PM 39.3031 -74.1969 219° Southwest 404 465 32,000  Level Washington Center
05:03PM 39.2144 -74.2869 218° Southwest 404 465 32,000  Level Washington Center
05:04PM 39.1281 -74.3769 219° Southwest 404 465 32,000  Level Washington Center
05:05PM 39.0456 -74.4664 220° Southwest 399 459 32,000  Level Washington Center
05:06PM 38.9567 -74.5558 218° Southwest 399 459 32,000  Level Washington Center
05:07PM 38.8719 -74.6450 219° Southwest 399 459 32,000  Level Washington Center
05:08PM 38.7872 -74.7314 218° Southwest 399 459 32,000  Level Washington Center
05:09PM 38.7003 -74.8175 218° Southwest 399 459 32,000  Level Washington Center
05:10PM 38.6153 -74.9089 220° Southwest 399 459 32,000  Level Washington Center
05:11PM 38.5303 -74.9944 218° Southwest 399 459 32,000  Level Washington Center
05:12PM 38.4431 -75.0800 218° Southwest 399 459 32,000  Level Washington Center
05:13PM 38.3536 -75.1681 218° Southwest 399 459 32,000  Level Washington Center
05:14PM 38.2789 -75.2506 221° Southwest 404 465 32,000  Level Washington Center
05:15PM 38.1917 -75.3356 217° Southwest 404 465 32,000  Level Washington Center
05:16PM 38.1064 -75.4228 219° Southwest 404 465 32,000  Level Washington Center
05:17PM 38.0147 -75.5022 214° Southwest 404 465 32,000  Level Washington Center
05:18PM 37.9228 -75.5733 211° Southwest 404 465 32,000  Level Washington Center
05:19PM 37.8269 -75.6444 210° Southwest 399 459 32,000  Level Washington Center
05:20PM 37.7308 -75.7153 210° Southwest 404 465 32,000  Level Washington Center
05:21PM 37.6392 -75.7858 211° Southwest 404 465 32,000 -60 Level Washington Center
05:22PM 37.5431 -75.8564 210° Southwest 404 465 31,900  Descending Washington Center
05:23PM 37.4406 -75.9136 204° Southwest 399 459 32,000  Climbing Washington Center
05:24PM 37.3383 -75.9681 203° Southwest 399 459 32,000  Level Washington Center
05:25PM 37.2339 -76.0222 202° Southwest 399 459 32,000  Level Washington Center
05:26PM 37.1314 -76.0764 203° Southwest 399 459 32,000  Level Washington Center
05:27PM 37.0289 -76.1331 204° Southwest 399 459 32,000  Level Washington Center
05:28PM 36.9139 -76.1894 201° Southwest 404 465 32,000  Level Washington Center
05:29PM 36.8217 -76.2639 213° Southwest 404 465 32,000  Level Washington Center
05:30PM 36.7294 -76.3436 215° Southwest 399 459 32,000  Level Washington Center
05:31PM 36.6519 -76.4203 218° Southwest 404 465 32,000  Level Washington Center
05:32PM 36.5614 -76.5022 216° Southwest 404 465 32,000  Level Washington Center
05:33PM 36.4692 -76.5836 215° Southwest 409 471 32,000  Level Washington Center
05:34PM 36.3786 -76.6653 216° Southwest 409 471 32,000  Level Washington Center
05:35PM 36.2861 -76.7489 216° Southwest 409 471 32,000  Level Washington Center
05:36PM 36.2019 -76.8197 214° Southwest 414 476 32,000  Level Washington Center
05:37PM 36.0944 -76.9183 217° Southwest 414 476 32,000  Level Washington Center
05:38PM 36.0206 -76.9839 216° Southwest 414 476 32,000  Level Washington Center
05:39PM 35.9131 -77.0794 216° Southwest 414 476 32,000  Level Washington Center
05:40PM 35.8350 -77.1497 216° Southwest 406 467 32,000  Level Washington Center
05:41PM 35.7483 -77.2325 218° Southwest 406 467 32,000  Level Washington Center
05:42PM 35.6575 -77.3100 215° Southwest 406 467 32,000  Level Washington Center
05:43PM 35.5667 -77.3897 216° Southwest 406 467 32,000  Level Washington Center
05:44PM 35.4758 -77.4667 215° Southwest 406 467 32,000  Level Washington Center
05:45PM 35.3847 -77.5461 215° Southwest 406 467 32,000  Level Washington Center
05:46PM 35.2978 -77.6331 219° Southwest 406 467 32,000  Level Washington Center
05:47PM 35.2150 -77.7200 221° Southwest 406 467 32,000  Level Washington Center
05:48PM 35.1300 -77.8067 220° Southwest 401 461 32,000  Level Washington Center
05:49PM 35.0428 -77.8956 220° Southwest 406 467 32,000  Level Washington Center
05:50PM 34.9553 -77.9842 220° Southwest 412 474 32,000  Level Washington Center
05:51PM 34.8744 -78.0706 221° Southwest 407 468 32,000  Level Washington Center
05:52PM 34.7931 -78.1617 223° Southwest 407 468 32,000  Level Washington Center
05:53PM 34.7100 -78.2447 219° Southwest 402 463 32,000  Level Washington Center
05:54PM 34.6244 -78.3303 219° Southwest 397 457 32,000  Level Washington Center
05:57PM 34.3358 -78.6228 220° Southwest 409 471 32,000  Level Jacksonville Center
05:58PM 34.2408 -78.7181 220° Southwest 414 476 32,000  Level Jacksonville Center
05:59PM 34.1542 -78.8050 220° Southwest 408 470 32,000  Level Jacksonville Center
06:00PM 34.0669 -78.8892 219° Southwest 408 470 32,000  Level Jacksonville Center
06:01PM 33.9842 -78.9731 220° Southwest 408 470 32,000  Level Jacksonville Center
06:02PM 33.8969 -79.0572 219° Southwest 408 470 32,000  Level Jacksonville Center
06:03PM 33.8078 -79.1408 218° Southwest 413 475 32,000  Level Jacksonville Center
06:04PM 33.7183 -79.2222 217° Southwest 413 475 32,000  Level Jacksonville Center
06:05PM 33.6350 -79.3006 218° Southwest 406 467 32,000  Level Jacksonville Center
06:06PM 33.5414 -79.3814 216° Southwest 406 467 32,000  Level Jacksonville Center
06:07PM 33.4517 -79.4622 217° Southwest 411 473 32,000  Level Jacksonville Center
06:08PM 33.3622 -79.5453 218° Southwest 411 473 32,000  Level Jacksonville Center
06:09PM 33.2703 -79.6256 216° Southwest 411 473 32,000  Level Jacksonville Center
06:10PM 33.1806 -79.7058 217° Southwest 411 473 32,000  Level Jacksonville Center
06:11PM 33.0886 -79.7886 217° Southwest 411 473 32,000  Level Jacksonville Center
06:12PM 32.9989 -79.8683 217° Southwest 411 473 32,000  Level Jacksonville Center
06:13PM 32.9089 -79.9481 217° Southwest 411 473 32,000  Level Jacksonville Center
06:14PM 32.8169 -80.0328 218° Southwest 406 467 32,000  Level Jacksonville Center
06:15PM 32.7247 -80.1097 215° Southwest 406 467 32,000  Level Jacksonville Center
06:16PM 32.6344 -80.1914 217° Southwest 406 467 32,000  Level Jacksonville Center
06:17PM 32.5464 -80.2703 217° Southwest 406 467 32,000  Level Jacksonville Center
06:18PM 32.4542 -80.3519 217° Southwest 406 467 32,000  Level Jacksonville Center
06:19PM 32.3619 -80.4331 217° Southwest 406 467 32,000  Level Jacksonville Center
06:20PM 32.2694 -80.5117 216° Southwest 406 467 32,000  Level Jacksonville Center
06:21PM 32.1792 -80.5928 217° Southwest 406 467 32,000  Level Jacksonville Center
06:22PM 32.0906 -80.6708 217° Southwest 406 467 32,000  Level Jacksonville Center
06:23PM 32.0083 -80.7414 216° Southwest 406 467 32,000  Level Jacksonville Center
06:24PM 31.9056 -80.8272 215° Southwest 411 473 32,000  Level Jacksonville Center
06:25PM 31.7956 -80.8808 203° Southwest 419 482 32,000  Level Jacksonville Center
06:26PM 31.7003 -80.9244 201° Southwest 429 494 32,000  Level Jacksonville Center
06:27PM 31.5931 -81.0072 213° Southwest 419 482 32,000  Level Jacksonville Center
06:28PM 31.4831 -81.0558 201° Southwest 419 482 32,000  Level Jacksonville Center
06:29PM 31.3833 -81.0942 198° South 427 491 32,000  Level Jacksonville Center
06:30PM 31.2589 -81.1500 201° Southwest 427 491 32,000  Level Jacksonville Center
06:31PM 31.1489 -81.1908 198° South 426 490 32,000  Level Jacksonville Center
06:32PM 31.0408 -81.2364 200° South 421 484 32,000  Level Jacksonville Center
06:33PM 30.9306 -81.2797 199° South 421 484 32,000  Level Jacksonville Center
06:34PM 30.8206 -81.3203 198° South 421 484 32,000  Level Jacksonville Center
06:35PM 30.7167 -81.3703 202° Southwest 421 484 32,000  Level Jacksonville Center
06:36PM 30.6469 -81.4703 231° Southwest 393 452 32,000  Level Jacksonville Center
06:37PM 30.5792 -81.5703 232° Southwest 393 452 32,000  Level Jacksonville Center
06:38PM 30.5092 -81.6725 232° Southwest 400 460 32,000  Level Jacksonville Center
06:39PM 30.4411 -81.7697 231° Southwest 400 460 32,000  Level Jacksonville Center
06:40PM 30.3731 -81.8692 232° Southwest 400 460 32,000  Level Jacksonville Center
06:41PM 30.3050 -81.9711 232° Southwest 400 460 32,000 -540 Level Jacksonville Center
06:42PM 30.2389 -82.0703 232° Southwest 399 459 31,000 -960 Descending Jacksonville Center
06:43PM 30.1517 -82.1528 219° Southwest 409 471 30,100 -1,500 Descending Jacksonville Center
06:44PM 30.0622 -82.2158 211° Southwest 415 478 28,000 -2,520 Descending Jacksonville Center
06:45PM 29.9622 -82.2836 210° Southwest 421 484 25,100 -2,220 Descending Jacksonville Center
06:46PM 29.8539 -82.3058 190° South 402 463 23,600 -1,260 Descending Jacksonville Center
06:47PM 29.7492 -82.2633 161° South 386 444 22,600 -1,020 Descending Jacksonville Center
06:48PM 29.6406 -82.2186 160° South 393 452 21,600 -1,020 Descending Jacksonville Center
06:49PM 29.5317 -82.1764 161° South 403 464 20,600 -1,020 Descending Jacksonville Center
06:50PM 29.4272 -82.1367 162° South 403 464 19,600 -1,020 Descending Jacksonville Center
06:51PM 29.3289 -82.0994 162° South 398 458 18,600 -1,200 Descending Jacksonville Center
06:52PM 29.2306 -82.0644 163° South 386 444 17,300 -1,740 Descending Jacksonville Center
06:53PM 29.1319 -82.0250 161° South 380 437 15,200 -2,100 Descending Jacksonville Center
06:54PM 29.0378 -81.9900 162° South 373 429 13,100 -1,980 Descending Jacksonville Center
06:55PM 28.9375 -81.9506 161° South 361 415 11,300 -1,140 Descending Jacksonville Center
06:56PM 28.8661 -81.9086 153° Southeast 329 379 10,900 -300 Descending Jacksonville Center
06:57PM 28.8500 -81.8667 114° Southeast 283 326 10,900 -1,020 Level Orlando TRACON
06:58PM 28.8167 -81.7833 115° Southeast 296 341 9,500 -1,500 Descending Orlando TRACON
06:59PM 28.7833 -81.6833 111° Southeast 285 328 7,800 -1,140 Descending Orlando TRACON
07:00PM 28.7500 -81.6000 115° Southeast 283 326 7,000 -420 Descending Orlando TRACON
07:01PM 28.7333 -81.5167 103° East 243 280 7,000 -180 Level Orlando TRACON
07:02PM 28.7167 -81.4667 111° Southeast 248 285 6,700 -660 Descending Orlando TRACON
07:03PM 28.6833 -81.3833 114° Southeast 244 281 5,800 -960 Descending Orlando TRACON
07:04PM 28.6667 -81.3167 106° East 234 269 4,800 -1,200 Descending Orlando TRACON
07:05PM 28.6000 -81.3000 168° South 208 239 3,300 -1,320 Descending Orlando TRACON
07:06PM 28.5500 -81.3000 180° South 211 243 2,100 -1,080 Descending Orlando TRACON
07:07PM 28.5000 -81.3000 180° South 163 188 1,300 -840 Descending Orlando TRACON
07:08PM 28.4667 -81.3000 180° South 130 150 600 -720 Descending Orlando TRACON
07:10PM 28.4294 -81.3090 180° South  Level Estimated
07:17PM 28.4294 -81.3090 24° Northeast  Level Estimated
07:18PM 28.4294 -81.3090 24° Northeast  Level Estimated
07:19PM 28.4294 -81.3090 24° Northeast  Level Estimated
07:20PM 28.4294 -81.3090 24° Northeast  Level Estimated